Accueil
METAR-TAF:

METAR-TAF

Aéroports :

Mannheim, Allemagne

Aéroport de Mannheim

latitude: 49-28-21N, longitude: 008-30-56E, altitude: 100 m

Observation

Le bulletin a été fait il y a 27 minutes, à 16:20 UTC
Vent 4 kt de nord, variant entre nord-ouest et nord-est
Température 24°C
Humidité 41%
Pression 1019 hPa
Visibilité 10 km ou plus
pas de nuages en-dessous de 1500 mètres et pas de cumulonimbus.

METAR: EDFM 221620Z 36004KT 320V040 CAVOK 24/10 Q1019

Heure: 18:47 (16:47 UTC)

Prévision

Le bulletin a été fait il y a 2 heures et 47 minutes, à 14:00 UTC
Prévision valable du 22 à 15 UTC au 22 à 21 UTC
Vent 4 kt de nord-est
Visibilité 10 km ou plus
pas de nuages en-dessous de 1500 mètres et pas de cumulonimbus.

TAF: EDFM 221400Z 2215/2221 04004KT CAVOK

Observations et prévisions météorologiques de plus de 4000 aéroports (messages METAR et TAF).

Les stations disponibles sont représentées par des disques jaunes et rouges sur la carte.

Passer la souris dessus pour voir le nom de la station.

Cliquer dessus pour voir les observations et prévisions météorologiques.

Pour changer de carte: cliquez sur les boutons verts avec une croix noire pour zoomer, sur le bouton vert avec un tiret pour effectuer un zoom arrière, ou sur les flèches vertes pour les cartes adjacentes.


METAR-TAF: